sensor_id;sensor_type;location;lat;lon;timestamp;P1;durP1;ratioP1;P2;durP2;ratioP2
43883;SDS011;29544;52.018;5.810;2023-05-07T00:01:16;1.37;;;0.87;;
43883;SDS011;29544;52.018;5.810;2023-05-07T00:03:41;2.33;;;0.90;;
43883;SDS011;29544;52.018;5.810;2023-05-07T00:06:07;0.77;;;0.57;;
43883;SDS011;29544;52.018;5.810;2023-05-07T00:08:32;1.23;;;0.60;;
43883;SDS011;29544;52.018;5.810;2023-05-07T00:10:58;1.07;;;0.73;;
43883;SDS011;29544;52.018;5.810;2023-05-07T00:13:24;0.70;;;0.60;;
43883;SDS011;29544;52.018;5.810;2023-05-07T00:15:49;2.00;;;0.63;;
43883;SDS011;29544;52.018;5.810;2023-05-07T00:18:15;0.77;;;0.63;;
43883;SDS011;29544;52.018;5.810;2023-05-07T00:20:40;1.15;;;0.65;;
43883;SDS011;29544;52.018;5.810;2023-05-07T00:23:06;2.13;;;0.60;;
43883;SDS011;29544;52.018;5.810;2023-05-07T00:25:31;0.80;;;0.70;;
43883;SDS011;29544;52.018;5.810;2023-05-07T00:27:57;1.57;;;0.87;;
43883;SDS011;29544;52.018;5.810;2023-05-07T00:30:27;2.03;;;0.82;;
43883;SDS011;29544;52.018;5.810;2023-05-07T00:32:53;1.77;;;0.80;;
43883;SDS011;29544;52.018;5.810;2023-05-07T00:35:19;1.00;;;0.68;;
43883;SDS011;29544;52.018;5.810;2023-05-07T00:37:44;1.13;;;0.80;;
43883;SDS011;29544;52.018;5.810;2023-05-07T00:40:10;2.30;;;1.00;;
43883;SDS011;29544;52.018;5.810;2023-05-07T00:42:36;1.15;;;0.70;;
43883;SDS011;29544;52.018;5.810;2023-05-07T00:45:02;2.08;;;0.85;;
43883;SDS011;29544;52.018;5.810;2023-05-07T00:47:28;1.13;;;0.80;;
43883;SDS011;29544;52.018;5.810;2023-05-07T00:49:53;0.70;;;0.50;;
43883;SDS011;29544;52.018;5.810;2023-05-07T00:52:19;1.88;;;0.70;;
43883;SDS011;29544;52.018;5.810;2023-05-07T00:54:50;1.27;;;0.90;;
43883;SDS011;29544;52.018;5.810;2023-05-07T00:57:15;1.20;;;0.70;;
43883;SDS011;29544;52.018;5.810;2023-05-07T00:59:41;1.60;;;0.60;;
43883;SDS011;29544;52.018;5.810;2023-05-07T01:02:06;1.03;;;0.70;;
43883;SDS011;29544;52.018;5.810;2023-05-07T01:04:32;0.98;;;0.73;;
43883;SDS011;29544;52.018;5.810;2023-05-07T01:06:58;3.53;;;1.00;;
43883;SDS011;29544;52.018;5.810;2023-05-07T01:09:25;1.25;;;0.70;;
43883;SDS011;29544;52.018;5.810;2023-05-07T01:11:52;1.08;;;0.50;;
43883;SDS011;29544;52.018;5.810;2023-05-07T01:14:18;1.15;;;0.60;;
43883;SDS011;29544;52.018;5.810;2023-05-07T01:16:45;2.72;;;0.68;;
43883;SDS011;29544;52.018;5.810;2023-05-07T01:19:11;1.58;;;0.80;;
43883;SDS011;29544;52.018;5.810;2023-05-07T01:21:39;2.15;;;1.00;;
43883;SDS011;29544;52.018;5.810;2023-05-07T01:24:11;1.00;;;0.73;;
43883;SDS011;29544;52.018;5.810;2023-05-07T01:26:37;0.97;;;0.60;;
43883;SDS011;29544;52.018;5.810;2023-05-07T01:29:04;1.48;;;0.73;;
43883;SDS011;29544;52.018;5.810;2023-05-07T01:31:29;2.57;;;0.80;;
43883;SDS011;29544;52.018;5.810;2023-05-07T01:33:55;0.77;;;0.60;;
43883;SDS011;29544;52.018;5.810;2023-05-07T01:36:23;1.63;;;0.80;;
43883;SDS011;29544;52.018;5.810;2023-05-07T01:38:52;1.17;;;0.95;;
43883;SDS011;29544;52.018;5.810;2023-05-07T01:41:18;1.05;;;0.63;;
43883;SDS011;29544;52.018;5.810;2023-05-07T01:46:11;2.28;;;1.00;;
43883;SDS011;29544;52.018;5.810;2023-05-07T01:48:37;3.05;;;1.10;;
43883;SDS011;29544;52.018;5.810;2023-05-07T01:51:04;1.27;;;0.68;;
43883;SDS011;29544;52.018;5.810;2023-05-07T01:53:40;0.98;;;0.68;;
43883;SDS011;29544;52.018;5.810;2023-05-07T01:56:05;2.40;;;1.02;;
43883;SDS011;29544;52.018;5.810;2023-05-07T01:58:31;0.95;;;0.75;;
43883;SDS011;29544;52.018;5.810;2023-05-07T02:00:57;1.13;;;0.90;;
43883;SDS011;29544;52.018;5.810;2023-05-07T02:03:23;1.20;;;0.80;;
43883;SDS011;29544;52.018;5.810;2023-05-07T02:05:48;1.73;;;0.90;;
43883;SDS011;29544;52.018;5.810;2023-05-07T02:08:14;1.17;;;0.80;;
43883;SDS011;29544;52.018;5.810;2023-05-07T02:10:39;1.23;;;0.97;;
43883;SDS011;29544;52.018;5.810;2023-05-07T02:13:05;1.40;;;0.80;;
43883;SDS011;29544;52.018;5.810;2023-05-07T02:15:30;1.80;;;0.90;;
43883;SDS011;29544;52.018;5.810;2023-05-07T02:18:00;2.40;;;0.97;;
43883;SDS011;29544;52.018;5.810;2023-05-07T02:20:29;1.70;;;1.00;;
43883;SDS011;29544;52.018;5.810;2023-05-07T02:22:54;1.33;;;0.90;;
43883;SDS011;29544;52.018;5.810;2023-05-07T02:25:20;0.93;;;0.80;;
43883;SDS011;29544;52.018;5.810;2023-05-07T02:27:46;0.83;;;0.70;;
43883;SDS011;29544;52.018;5.810;2023-05-07T02:30:11;2.27;;;0.90;;
43883;SDS011;29544;52.018;5.810;2023-05-07T02:32:37;2.50;;;1.10;;
43883;SDS011;29544;52.018;5.810;2023-05-07T02:35:03;1.67;;;0.87;;
43883;SDS011;29544;52.018;5.810;2023-05-07T02:37:28;1.02;;;0.93;;
43883;SDS011;29544;52.018;5.810;2023-05-07T02:39:54;1.67;;;0.90;;
43883;SDS011;29544;52.018;5.810;2023-05-07T02:42:19;2.30;;;1.17;;
43883;SDS011;29544;52.018;5.810;2023-05-07T02:44:45;1.63;;;0.90;;
43883;SDS011;29544;52.018;5.810;2023-05-07T02:47:10;1.20;;;0.90;;
43883;SDS011;29544;52.018;5.810;2023-05-07T02:49:37;1.52;;;1.10;;
43883;SDS011;29544;52.018;5.810;2023-05-07T02:52:03;1.33;;;1.00;;
43883;SDS011;29544;52.018;5.810;2023-05-07T02:54:28;1.10;;;0.80;;
43883;SDS011;29544;52.018;5.810;2023-05-07T02:56:54;1.95;;;0.80;;
43883;SDS011;29544;52.018;5.810;2023-05-07T02:59:20;1.73;;;1.10;;
43883;SDS011;29544;52.018;5.810;2023-05-07T03:01:45;1.73;;;1.00;;
43883;SDS011;29544;52.018;5.810;2023-05-07T03:04:11;1.10;;;0.80;;
43883;SDS011;29544;52.018;5.810;2023-05-07T03:06:36;1.80;;;0.90;;
43883;SDS011;29544;52.018;5.810;2023-05-07T03:09:02;1.77;;;1.00;;
43883;SDS011;29544;52.018;5.810;2023-05-07T03:11:28;2.10;;;1.00;;
43883;SDS011;29544;52.018;5.810;2023-05-07T03:13:53;1.50;;;0.85;;
43883;SDS011;29544;52.018;5.810;2023-05-07T03:16:19;1.33;;;1.07;;
43883;SDS011;29544;52.018;5.810;2023-05-07T03:18:44;1.07;;;0.80;;
43883;SDS011;29544;52.018;5.810;2023-05-07T03:21:10;1.20;;;0.83;;
43883;SDS011;29544;52.018;5.810;2023-05-07T03:23:35;2.57;;;1.10;;
43883;SDS011;29544;52.018;5.810;2023-05-07T03:26:01;1.20;;;1.10;;
43883;SDS011;29544;52.018;5.810;2023-05-07T03:28:26;2.43;;;1.20;;
43883;SDS011;29544;52.018;5.810;2023-05-07T03:30:52;1.17;;;1.03;;
43883;SDS011;29544;52.018;5.810;2023-05-07T03:33:17;2.27;;;1.33;;
43883;SDS011;29544;52.018;5.810;2023-05-07T03:35:43;1.23;;;1.00;;
43883;SDS011;29544;52.018;5.810;2023-05-07T03:38:08;1.43;;;1.00;;
43883;SDS011;29544;52.018;5.810;2023-05-07T03:40:34;1.20;;;0.90;;
43883;SDS011;29544;52.018;5.810;2023-05-07T03:43:00;1.77;;;1.30;;
43883;SDS011;29544;52.018;5.810;2023-05-07T03:45:25;1.30;;;0.90;;
43883;SDS011;29544;52.018;5.810;2023-05-07T03:47:51;2.47;;;1.10;;
43883;SDS011;29544;52.018;5.810;2023-05-07T03:50:16;1.37;;;0.93;;
43883;SDS011;29544;52.018;5.810;2023-05-07T03:52:42;1.30;;;1.00;;
43883;SDS011;29544;52.018;5.810;2023-05-07T03:55:08;1.73;;;1.17;;
43883;SDS011;29544;52.018;5.810;2023-05-07T03:57:33;1.75;;;1.10;;
43883;SDS011;29544;52.018;5.810;2023-05-07T03:59:59;1.57;;;1.00;;
43883;SDS011;29544;52.018;5.810;2023-05-07T04:02:24;3.10;;;1.23;;
43883;SDS011;29544;52.018;5.810;2023-05-07T04:04:50;1.50;;;1.00;;
43883;SDS011;29544;52.018;5.810;2023-05-07T04:07:15;1.97;;;1.00;;
43883;SDS011;29544;52.018;5.810;2023-05-07T04:09:41;1.50;;;1.13;;
43883;SDS011;29544;52.018;5.810;2023-05-07T04:12:06;1.77;;;1.20;;
43883;SDS011;29544;52.018;5.810;2023-05-07T04:14:32;1.23;;;1.10;;
43883;SDS011;29544;52.018;5.810;2023-05-07T04:16:58;1.63;;;1.00;;
43883;SDS011;29544;52.018;5.810;2023-05-07T04:21:50;1.92;;;1.20;;
43883;SDS011;29544;52.018;5.810;2023-05-07T04:24:15;1.27;;;1.00;;
43883;SDS011;29544;52.018;5.810;2023-05-07T04:26:41;1.30;;;1.10;;
43883;SDS011;29544;52.018;5.810;2023-05-07T04:29:06;1.23;;;1.10;;
43883;SDS011;29544;52.018;5.810;2023-05-07T04:31:32;1.87;;;1.30;;
43883;SDS011;29544;52.018;5.810;2023-05-07T04:33:58;1.27;;;1.10;;
43883;SDS011;29544;52.018;5.810;2023-05-07T04:36:23;2.03;;;1.30;;
43883;SDS011;29544;52.018;5.810;2023-05-07T04:38:52;4.00;;;1.00;;
43883;SDS011;29544;52.018;5.810;2023-05-07T04:41:18;1.90;;;1.20;;
43883;SDS011;29544;52.018;5.810;2023-05-07T04:43:44;1.42;;;1.02;;
43883;SDS011;29544;52.018;5.810;2023-05-07T04:46:09;1.20;;;1.10;;
43883;SDS011;29544;52.018;5.810;2023-05-07T04:48:35;2.00;;;1.20;;
43883;SDS011;29544;52.018;5.810;2023-05-07T04:51:01;1.00;;;0.90;;
43883;SDS011;29544;52.018;5.810;2023-05-07T04:53:26;1.60;;;1.07;;
43883;SDS011;29544;52.018;5.810;2023-05-07T04:55:55;1.20;;;1.00;;
43883;SDS011;29544;52.018;5.810;2023-05-07T04:58:22;1.60;;;1.10;;
43883;SDS011;29544;52.018;5.810;2023-05-07T05:00:48;1.63;;;1.08;;
43883;SDS011;29544;52.018;5.810;2023-05-07T05:03:13;1.30;;;0.93;;
43883;SDS011;29544;52.018;5.810;2023-05-07T05:05:39;1.93;;;1.20;;
43883;SDS011;29544;52.018;5.810;2023-05-07T05:08:05;1.63;;;1.17;;
43883;SDS011;29544;52.018;5.810;2023-05-07T05:10:30;2.17;;;1.53;;
43883;SDS011;29544;52.018;5.810;2023-05-07T05:12:56;1.37;;;1.20;;
43883;SDS011;29544;52.018;5.810;2023-05-07T05:15:21;1.90;;;1.17;;
43883;SDS011;29544;52.018;5.810;2023-05-07T05:17:47;1.30;;;1.17;;
43883;SDS011;29544;52.018;5.810;2023-05-07T05:20:12;1.33;;;1.07;;
43883;SDS011;29544;52.018;5.810;2023-05-07T05:22:39;1.92;;;1.20;;
43883;SDS011;29544;52.018;5.810;2023-05-07T05:25:05;1.75;;;1.40;;
43883;SDS011;29544;52.018;5.810;2023-05-07T05:27:31;1.48;;;1.10;;
43883;SDS011;29544;52.018;5.810;2023-05-07T05:29:56;1.97;;;1.07;;
43883;SDS011;29544;52.018;5.810;2023-05-07T05:32:21;2.07;;;1.20;;
43883;SDS011;29544;52.018;5.810;2023-05-07T05:34:47;1.70;;;1.17;;
43883;SDS011;29544;52.018;5.810;2023-05-07T05:37:12;1.00;;;0.90;;
43883;SDS011;29544;52.018;5.810;2023-05-07T05:39:38;1.27;;;0.90;;
43883;SDS011;29544;52.018;5.810;2023-05-07T05:42:04;1.70;;;1.23;;
43883;SDS011;29544;52.018;5.810;2023-05-07T05:44:29;1.47;;;1.03;;
43883;SDS011;29544;52.018;5.810;2023-05-07T05:46:55;1.63;;;1.20;;
43883;SDS011;29544;52.018;5.810;2023-05-07T05:49:22;2.00;;;1.13;;
43883;SDS011;29544;52.018;5.810;2023-05-07T05:51:48;1.43;;;0.97;;
43883;SDS011;29544;52.018;5.810;2023-05-07T05:54:13;1.30;;;1.13;;
43883;SDS011;29544;52.018;5.810;2023-05-07T05:59:05;1.70;;;1.13;;
43883;SDS011;29544;52.018;5.810;2023-05-07T06:01:31;1.07;;;0.97;;
43883;SDS011;29544;52.018;5.810;2023-05-07T06:03:57;2.03;;;1.20;;
43883;SDS011;29544;52.018;5.810;2023-05-07T06:06:22;6.23;;;1.40;;
43883;SDS011;29544;52.018;5.810;2023-05-07T06:08:48;3.10;;;1.20;;
43883;SDS011;29544;52.018;5.810;2023-05-07T06:11:13;1.83;;;1.13;;
43883;SDS011;29544;52.018;5.810;2023-05-07T06:13:39;1.00;;;0.90;;
43883;SDS011;29544;52.018;5.810;2023-05-07T06:16:04;2.20;;;1.40;;
43883;SDS011;29544;52.018;5.810;2023-05-07T06:18:30;1.40;;;1.10;;
43883;SDS011;29544;52.018;5.810;2023-05-07T06:20:56;1.10;;;1.00;;
43883;SDS011;29544;52.018;5.810;2023-05-07T06:23:21;2.10;;;1.13;;
43883;SDS011;29544;52.018;5.810;2023-05-07T06:25:50;2.13;;;1.30;;
43883;SDS011;29544;52.018;5.810;2023-05-07T06:28:16;1.95;;;1.15;;
43883;SDS011;29544;52.018;5.810;2023-05-07T06:30:42;1.30;;;1.20;;
43883;SDS011;29544;52.018;5.810;2023-05-07T06:33:07;1.60;;;1.20;;
43883;SDS011;29544;52.018;5.810;2023-05-07T06:35:33;1.27;;;1.03;;
43883;SDS011;29544;52.018;5.810;2023-05-07T06:37:59;1.87;;;1.10;;
43883;SDS011;29544;52.018;5.810;2023-05-07T06:40:25;1.38;;;1.15;;
43883;SDS011;29544;52.018;5.810;2023-05-07T06:42:50;1.67;;;0.93;;
43883;SDS011;29544;52.018;5.810;2023-05-07T06:45:16;1.00;;;0.93;;
43883;SDS011;29544;52.018;5.810;2023-05-07T06:47:41;1.47;;;1.10;;
43883;SDS011;29544;52.018;5.810;2023-05-07T06:50:07;1.23;;;0.80;;
43883;SDS011;29544;52.018;5.810;2023-05-07T06:52:34;3.20;;;1.30;;
43883;SDS011;29544;52.018;5.810;2023-05-07T06:55:00;1.27;;;0.90;;
43883;SDS011;29544;52.018;5.810;2023-05-07T06:57:26;0.97;;;0.93;;
43883;SDS011;29544;52.018;5.810;2023-05-07T06:59:51;2.00;;;1.10;;
43883;SDS011;29544;52.018;5.810;2023-05-07T07:02:17;1.90;;;0.93;;
43883;SDS011;29544;52.018;5.810;2023-05-07T07:04:42;1.53;;;1.03;;
43883;SDS011;29544;52.018;5.810;2023-05-07T07:07:08;1.03;;;0.90;;
43883;SDS011;29544;52.018;5.810;2023-05-07T07:09:33;2.20;;;1.20;;
43883;SDS011;29544;52.018;5.810;2023-05-07T07:11:59;1.43;;;1.07;;
43883;SDS011;29544;52.018;5.810;2023-05-07T07:14:24;1.20;;;0.90;;
43883;SDS011;29544;52.018;5.810;2023-05-07T07:16:50;1.40;;;1.30;;
43883;SDS011;29544;52.018;5.810;2023-05-07T07:19:15;1.73;;;1.23;;
43883;SDS011;29544;52.018;5.810;2023-05-07T07:21:41;1.53;;;1.23;;
43883;SDS011;29544;52.018;5.810;2023-05-07T07:24:07;3.22;;;1.10;;
43883;SDS011;29544;52.018;5.810;2023-05-07T07:26:32;1.77;;;1.20;;
43883;SDS011;29544;52.018;5.810;2023-05-07T07:28:58;3.30;;;1.10;;
43883;SDS011;29544;52.018;5.810;2023-05-07T07:31:23;1.83;;;1.63;;
43883;SDS011;29544;52.018;5.810;2023-05-07T07:33:49;3.30;;;1.50;;
43883;SDS011;29544;52.018;5.810;2023-05-07T07:36:15;2.05;;;1.50;;
43883;SDS011;29544;52.018;5.810;2023-05-07T07:38:41;2.45;;;1.40;;
43883;SDS011;29544;52.018;5.810;2023-05-07T07:41:07;4.87;;;1.70;;
43883;SDS011;29544;52.018;5.810;2023-05-07T07:43:33;2.67;;;1.77;;
43883;SDS011;29544;52.018;5.810;2023-05-07T07:45:59;7.53;;;1.80;;
43883;SDS011;29544;52.018;5.810;2023-05-07T07:48:24;4.17;;;2.03;;
43883;SDS011;29544;52.018;5.810;2023-05-07T07:50:50;4.85;;;2.55;;
43883;SDS011;29544;52.018;5.810;2023-05-07T07:53:18;5.00;;;2.05;;
43883;SDS011;29544;52.018;5.810;2023-05-07T07:55:44;4.27;;;1.67;;
43883;SDS011;29544;52.018;5.810;2023-05-07T07:58:10;3.55;;;1.52;;
43883;SDS011;29544;52.018;5.810;2023-05-07T08:00:36;3.33;;;2.33;;
43883;SDS011;29544;52.018;5.810;2023-05-07T08:03:01;3.55;;;2.08;;
43883;SDS011;29544;52.018;5.810;2023-05-07T08:05:28;6.75;;;3.78;;
43883;SDS011;29544;52.018;5.810;2023-05-07T08:07:53;4.38;;;2.15;;
43883;SDS011;29544;52.018;5.810;2023-05-07T08:10:19;3.23;;;2.03;;
43883;SDS011;29544;52.018;5.810;2023-05-07T08:12:48;5.40;;;2.45;;
43883;SDS011;29544;52.018;5.810;2023-05-07T08:15:14;4.03;;;2.45;;
43883;SDS011;29544;52.018;5.810;2023-05-07T08:17:40;2.97;;;2.33;;
43883;SDS011;29544;52.018;5.810;2023-05-07T08:20:06;3.60;;;2.60;;
43883;SDS011;29544;52.018;5.810;2023-05-07T08:24:58;3.53;;;2.67;;
43883;SDS011;29544;52.018;5.810;2023-05-07T08:27:25;6.07;;;2.75;;
43883;SDS011;29544;52.018;5.810;2023-05-07T08:29:50;5.57;;;3.47;;
43883;SDS011;29544;52.018;5.810;2023-05-07T08:32:16;4.57;;;2.80;;
43883;SDS011;29544;52.018;5.810;2023-05-07T08:34:42;4.57;;;2.90;;
43883;SDS011;29544;52.018;5.810;2023-05-07T08:37:07;5.77;;;3.83;;
43883;SDS011;29544;52.018;5.810;2023-05-07T08:39:33;7.97;;;5.43;;
43883;SDS011;29544;52.018;5.810;2023-05-07T08:42:00;3.83;;;2.90;;
43883;SDS011;29544;52.018;5.810;2023-05-07T08:44:29;5.75;;;4.00;;
43883;SDS011;29544;52.018;5.810;2023-05-07T08:46:58;4.97;;;3.90;;
43883;SDS011;29544;52.018;5.810;2023-05-07T08:49:27;9.05;;;4.88;;
43883;SDS011;29544;52.018;5.810;2023-05-07T08:54:18;5.30;;;2.92;;
43883;SDS011;29544;52.018;5.810;2023-05-07T08:56:45;4.18;;;2.83;;
43883;SDS011;29544;52.018;5.810;2023-05-07T08:59:10;3.63;;;2.70;;
43883;SDS011;29544;52.018;5.810;2023-05-07T09:01:36;8.50;;;3.20;;
43883;SDS011;29544;52.018;5.810;2023-05-07T09:04:03;9.68;;;3.80;;
43883;SDS011;29544;52.018;5.810;2023-05-07T09:06:29;4.38;;;2.97;;
43883;SDS011;29544;52.018;5.810;2023-05-07T09:08:55;7.70;;;3.28;;
43883;SDS011;29544;52.018;5.810;2023-05-07T09:11:21;11.18;;;4.45;;
43883;SDS011;29544;52.018;5.810;2023-05-07T09:16:13;5.43;;;3.10;;
43883;SDS011;29544;52.018;5.810;2023-05-07T09:18:42;10.73;;;4.03;;
43883;SDS011;29544;52.018;5.810;2023-05-07T09:21:15;18.25;;;5.28;;
43883;SDS011;29544;52.018;5.810;2023-05-07T09:23:41;9.35;;;4.78;;
43883;SDS011;29544;52.018;5.810;2023-05-07T09:26:07;5.15;;;3.53;;
43883;SDS011;29544;52.018;5.810;2023-05-07T09:28:40;7.78;;;4.18;;
43883;SDS011;29544;52.018;5.810;2023-05-07T09:31:07;7.13;;;3.88;;
43883;SDS011;29544;52.018;5.810;2023-05-07T09:33:35;7.55;;;5.20;;
43883;SDS011;29544;52.018;5.810;2023-05-07T09:36:02;7.60;;;3.30;;
43883;SDS011;29544;52.018;5.810;2023-05-07T09:38:32;6.97;;;4.25;;
43883;SDS011;29544;52.018;5.810;2023-05-07T09:41:09;9.00;;;5.00;;
43883;SDS011;29544;52.018;5.810;2023-05-07T09:43:36;10.60;;;3.95;;
43883;SDS011;29544;52.018;5.810;2023-05-07T09:48:39;7.20;;;5.15;;
43883;SDS011;29544;52.018;5.810;2023-05-07T09:51:09;5.43;;;4.10;;
43883;SDS011;29544;52.018;5.810;2023-05-07T09:53:47;6.63;;;4.72;;
43883;SDS011;29544;52.018;5.810;2023-05-07T09:56:14;11.35;;;5.68;;
43883;SDS011;29544;52.018;5.810;2023-05-07T09:58:41;8.18;;;5.40;;
43883;SDS011;29544;52.018;5.810;2023-05-07T10:01:08;8.80;;;5.60;;
43883;SDS011;29544;52.018;5.810;2023-05-07T10:03:35;7.05;;;5.55;;
43883;SDS011;29544;52.018;5.810;2023-05-07T10:06:02;8.05;;;4.45;;
43883;SDS011;29544;52.018;5.810;2023-05-07T10:08:30;9.27;;;4.95;;
43883;SDS011;29544;52.018;5.810;2023-05-07T10:10:55;12.77;;;5.47;;
43883;SDS011;29544;52.018;5.810;2023-05-07T10:13:21;10.27;;;5.00;;
43883;SDS011;29544;52.018;5.810;2023-05-07T10:15:47;6.63;;;5.00;;
43883;SDS011;29544;52.018;5.810;2023-05-07T10:18:13;5.10;;;3.88;;
43883;SDS011;29544;52.018;5.810;2023-05-07T10:20:38;6.72;;;3.60;;
43883;SDS011;29544;52.018;5.810;2023-05-07T10:23:06;5.40;;;3.65;;
43883;SDS011;29544;52.018;5.810;2023-05-07T10:25:35;5.53;;;3.85;;
43883;SDS011;29544;52.018;5.810;2023-05-07T10:28:05;6.47;;;3.93;;
43883;SDS011;29544;52.018;5.810;2023-05-07T10:33:01;6.63;;;3.72;;
43883;SDS011;29544;52.018;5.810;2023-05-07T10:35:31;5.70;;;3.45;;
43883;SDS011;29544;52.018;5.810;2023-05-07T10:38:02;6.05;;;2.97;;
43883;SDS011;29544;52.018;5.810;2023-05-07T10:40:29;5.97;;;3.85;;
43883;SDS011;29544;52.018;5.810;2023-05-07T10:42:56;5.38;;;3.65;;
43883;SDS011;29544;52.018;5.810;2023-05-07T10:45:25;5.72;;;3.70;;
43883;SDS011;29544;52.018;5.810;2023-05-07T10:55:50;6.43;;;3.28;;
43883;SDS011;29544;52.018;5.810;2023-05-07T10:58:36;14.93;;;3.85;;
43883;SDS011;29544;52.018;5.810;2023-05-07T11:01:02;5.20;;;2.97;;
43883;SDS011;29544;52.018;5.810;2023-05-07T11:03:28;7.65;;;3.88;;
43883;SDS011;29544;52.018;5.810;2023-05-07T11:06:13;6.32;;;3.22;;
43883;SDS011;29544;52.018;5.810;2023-05-07T11:11:43;4.47;;;2.47;;
43883;SDS011;29544;52.018;5.810;2023-05-07T11:17:07;6.68;;;3.38;;
43883;SDS011;29544;52.018;5.810;2023-05-07T11:19:49;7.05;;;3.25;;
43883;SDS011;29544;52.018;5.810;2023-05-07T11:24:56;6.03;;;2.70;;
43883;SDS011;29544;52.018;5.810;2023-05-07T11:27:26;3.88;;;2.58;;
43883;SDS011;29544;52.018;5.810;2023-05-07T11:29:52;9.90;;;2.65;;
43883;SDS011;29544;52.018;5.810;2023-05-07T11:34:56;3.92;;;2.70;;
43883;SDS011;29544;52.018;5.810;2023-05-07T11:37:23;6.82;;;3.25;;
43883;SDS011;29544;52.018;5.810;2023-05-07T11:39:50;7.28;;;3.97;;
43883;SDS011;29544;52.018;5.810;2023-05-07T11:42:29;9.63;;;4.22;;
43883;SDS011;29544;52.018;5.810;2023-05-07T11:45:00;5.90;;;4.57;;
43883;SDS011;29544;52.018;5.810;2023-05-07T11:49:54;6.88;;;4.97;;
43883;SDS011;29544;52.018;5.810;2023-05-07T11:52:21;9.37;;;4.03;;
43883;SDS011;29544;52.018;5.810;2023-05-07T11:54:51;15.45;;;3.92;;
43883;SDS011;29544;52.018;5.810;2023-05-07T11:57:18;6.32;;;3.78;;
43883;SDS011;29544;52.018;5.810;2023-05-07T12:02:11;7.33;;;5.30;;
43883;SDS011;29544;52.018;5.810;2023-05-07T12:04:39;6.90;;;4.32;;
43883;SDS011;29544;52.018;5.810;2023-05-07T12:07:04;7.10;;;5.90;;
43883;SDS011;29544;52.018;5.810;2023-05-07T12:09:32;10.35;;;6.00;;
43883;SDS011;29544;52.018;5.810;2023-05-07T12:12:03;8.45;;;5.55;;
43883;SDS011;29544;52.018;5.810;2023-05-07T12:14:29;6.10;;;4.80;;
43883;SDS011;29544;52.018;5.810;2023-05-07T12:16:55;7.13;;;4.55;;
43883;SDS011;29544;52.018;5.810;2023-05-07T12:19:20;9.10;;;5.13;;
43883;SDS011;29544;52.018;5.810;2023-05-07T12:21:47;7.43;;;5.07;;
43883;SDS011;29544;52.018;5.810;2023-05-07T12:24:14;7.53;;;5.78;;
43883;SDS011;29544;52.018;5.810;2023-05-07T12:26:40;8.73;;;6.38;;
43883;SDS011;29544;52.018;5.810;2023-05-07T12:29:06;6.43;;;5.25;;
43883;SDS011;29544;52.018;5.810;2023-05-07T12:31:31;9.88;;;6.55;;
43883;SDS011;29544;52.018;5.810;2023-05-07T12:33:57;9.53;;;5.90;;
43883;SDS011;29544;52.018;5.810;2023-05-07T12:36:23;7.50;;;6.23;;
43883;SDS011;29544;52.018;5.810;2023-05-07T12:38:51;7.63;;;4.73;;
43883;SDS011;29544;52.018;5.810;2023-05-07T12:41:16;7.55;;;4.68;;
43883;SDS011;29544;52.018;5.810;2023-05-07T12:43:46;7.18;;;4.50;;
43883;SDS011;29544;52.018;5.810;2023-05-07T12:46:12;6.93;;;5.38;;
43883;SDS011;29544;52.018;5.810;2023-05-07T12:48:45;6.85;;;4.70;;
43883;SDS011;29544;52.018;5.810;2023-05-07T12:51:11;8.65;;;4.75;;
43883;SDS011;29544;52.018;5.810;2023-05-07T12:53:41;7.95;;;4.25;;
43883;SDS011;29544;52.018;5.810;2023-05-07T12:56:07;7.68;;;4.57;;
43883;SDS011;29544;52.018;5.810;2023-05-07T12:58:33;9.73;;;6.97;;
43883;SDS011;29544;52.018;5.810;2023-05-07T13:01:01;6.35;;;5.25;;
43883;SDS011;29544;52.018;5.810;2023-05-07T13:03:34;7.93;;;5.63;;
43883;SDS011;29544;52.018;5.810;2023-05-07T13:06:02;11.55;;;5.15;;
43883;SDS011;29544;52.018;5.810;2023-05-07T13:08:30;7.75;;;4.38;;
43883;SDS011;29544;52.018;5.810;2023-05-07T13:11:01;9.68;;;5.45;;
43883;SDS011;29544;52.018;5.810;2023-05-07T13:13:28;9.75;;;5.28;;
43883;SDS011;29544;52.018;5.810;2023-05-07T13:15:57;11.15;;;5.18;;
43883;SDS011;29544;52.018;5.810;2023-05-07T13:18:26;6.40;;;4.67;;
43883;SDS011;29544;52.018;5.810;2023-05-07T13:20:54;5.97;;;4.45;;
43883;SDS011;29544;52.018;5.810;2023-05-07T13:23:20;7.75;;;4.70;;
43883;SDS011;29544;52.018;5.810;2023-05-07T13:25:45;8.70;;;5.00;;
43883;SDS011;29544;52.018;5.810;2023-05-07T13:28:11;6.40;;;4.57;;
43883;SDS011;29544;52.018;5.810;2023-05-07T13:30:37;5.97;;;4.38;;
43883;SDS011;29544;52.018;5.810;2023-05-07T13:33:02;7.57;;;4.00;;
43883;SDS011;29544;52.018;5.810;2023-05-07T13:35:28;6.90;;;4.55;;
43883;SDS011;29544;52.018;5.810;2023-05-07T13:37:54;6.73;;;4.23;;
43883;SDS011;29544;52.018;5.810;2023-05-07T13:40:20;7.75;;;3.65;;
43883;SDS011;29544;52.018;5.810;2023-05-07T13:42:47;6.90;;;3.78;;
43883;SDS011;29544;52.018;5.810;2023-05-07T13:45:12;9.38;;;5.63;;
43883;SDS011;29544;52.018;5.810;2023-05-07T13:47:39;6.50;;;3.70;;
43883;SDS011;29544;52.018;5.810;2023-05-07T13:50:05;7.65;;;5.57;;
43883;SDS011;29544;52.018;5.810;2023-05-07T13:52:32;8.88;;;5.03;;
43883;SDS011;29544;52.018;5.810;2023-05-07T13:54:57;11.03;;;5.90;;
43883;SDS011;29544;52.018;5.810;2023-05-07T13:57:23;5.13;;;4.38;;
43883;SDS011;29544;52.018;5.810;2023-05-07T13:59:49;7.57;;;5.07;;
43883;SDS011;29544;52.018;5.810;2023-05-07T14:02:15;7.53;;;5.40;;
43883;SDS011;29544;52.018;5.810;2023-05-07T14:04:40;9.17;;;5.93;;
43883;SDS011;29544;52.018;5.810;2023-05-07T14:07:06;10.47;;;4.87;;
43883;SDS011;29544;52.018;5.810;2023-05-07T14:09:31;13.60;;;6.00;;
43883;SDS011;29544;52.018;5.810;2023-05-07T14:11:58;12.50;;;6.32;;
43883;SDS011;29544;52.018;5.810;2023-05-07T14:14:23;16.52;;;6.80;;
43883;SDS011;29544;52.018;5.810;2023-05-07T14:16:49;16.00;;;6.97;;
43883;SDS011;29544;52.018;5.810;2023-05-07T14:19:14;15.97;;;6.70;;
43883;SDS011;29544;52.018;5.810;2023-05-07T14:21:40;15.00;;;6.10;;
43883;SDS011;29544;52.018;5.810;2023-05-07T14:24:06;17.20;;;7.35;;
43883;SDS011;29544;52.018;5.810;2023-05-07T14:26:33;13.15;;;5.20;;
43883;SDS011;29544;52.018;5.810;2023-05-07T14:28:59;11.38;;;5.65;;
43883;SDS011;29544;52.018;5.810;2023-05-07T14:31:25;9.55;;;4.82;;
43883;SDS011;29544;52.018;5.810;2023-05-07T14:33:51;11.73;;;5.17;;
43883;SDS011;29544;52.018;5.810;2023-05-07T14:36:17;13.38;;;6.03;;
43883;SDS011;29544;52.018;5.810;2023-05-07T14:38:44;13.20;;;5.20;;
43883;SDS011;29544;52.018;5.810;2023-05-07T14:41:10;9.68;;;5.97;;
43883;SDS011;29544;52.018;5.810;2023-05-07T14:43:36;9.93;;;5.27;;
43883;SDS011;29544;52.018;5.810;2023-05-07T14:46:01;10.63;;;4.83;;
43883;SDS011;29544;52.018;5.810;2023-05-07T14:48:27;8.90;;;4.50;;
43883;SDS011;29544;52.018;5.810;2023-05-07T14:50:52;12.03;;;4.50;;
43883;SDS011;29544;52.018;5.810;2023-05-07T14:53:18;14.23;;;4.03;;
43883;SDS011;29544;52.018;5.810;2023-05-07T14:55:43;10.13;;;4.57;;
43883;SDS011;29544;52.018;5.810;2023-05-07T14:58:10;8.33;;;3.90;;
43883;SDS011;29544;52.018;5.810;2023-05-07T15:00:35;9.40;;;4.78;;
43883;SDS011;29544;52.018;5.810;2023-05-07T15:03:06;8.50;;;4.57;;
43883;SDS011;29544;52.018;5.810;2023-05-07T15:05:32;8.15;;;4.43;;
43883;SDS011;29544;52.018;5.810;2023-05-07T15:07:58;7.70;;;4.25;;
43883;SDS011;29544;52.018;5.810;2023-05-07T15:10:24;7.55;;;3.95;;
43883;SDS011;29544;52.018;5.810;2023-05-07T15:12:50;6.65;;;3.80;;
43883;SDS011;29544;52.018;5.810;2023-05-07T15:15:15;7.63;;;3.50;;
43883;SDS011;29544;52.018;5.810;2023-05-07T15:17:41;6.93;;;4.20;;
43883;SDS011;29544;52.018;5.810;2023-05-07T15:20:07;7.80;;;3.70;;
43883;SDS011;29544;52.018;5.810;2023-05-07T15:22:33;5.63;;;4.38;;
43883;SDS011;29544;52.018;5.810;2023-05-07T15:24:58;10.45;;;5.03;;